sensor_id;sensor_type;location;lat;lon;timestamp;P1;durP1;ratioP1;P2;durP2;ratioP2
49840;SDS011;35738;49.890;5.930;2023-08-12T00:01:53;7.93;;;6.15;;
49840;SDS011;35738;49.890;5.930;2023-08-12T00:04:20;8.43;;;5.80;;
49840;SDS011;35738;49.890;5.930;2023-08-12T00:06:46;10.10;;;6.20;;
49840;SDS011;35738;49.890;5.930;2023-08-12T00:09:14;7.25;;;6.55;;
49840;SDS011;35738;49.890;5.930;2023-08-12T00:11:41;7.40;;;5.47;;
49840;SDS011;35738;49.890;5.930;2023-08-12T00:14:08;10.90;;;7.10;;
49840;SDS011;35738;49.890;5.930;2023-08-12T00:16:35;10.57;;;6.80;;
49840;SDS011;35738;49.890;5.930;2023-08-12T00:19:01;7.70;;;6.90;;
49840;SDS011;35738;49.890;5.930;2023-08-12T00:21:28;7.82;;;7.10;;
49840;SDS011;35738;49.890;5.930;2023-08-12T00:23:54;7.95;;;6.60;;
49840;SDS011;35738;49.890;5.930;2023-08-12T00:26:21;12.30;;;7.55;;
49840;SDS011;35738;49.890;5.930;2023-08-12T00:28:48;8.18;;;7.35;;
49840;SDS011;35738;49.890;5.930;2023-08-12T00:31:15;9.57;;;7.63;;
49840;SDS011;35738;49.890;5.930;2023-08-12T00:33:42;9.15;;;7.35;;
49840;SDS011;35738;49.890;5.930;2023-08-12T00:36:08;8.77;;;6.88;;
49840;SDS011;35738;49.890;5.930;2023-08-12T00:38:35;9.60;;;6.88;;
49840;SDS011;35738;49.890;5.930;2023-08-12T00:41:01;9.95;;;6.15;;
49840;SDS011;35738;49.890;5.930;2023-08-12T00:43:29;6.25;;;5.15;;
49840;SDS011;35738;49.890;5.930;2023-08-12T00:45:56;7.30;;;5.88;;
49840;SDS011;35738;49.890;5.930;2023-08-12T00:48:23;5.18;;;4.65;;
49840;SDS011;35738;49.890;5.930;2023-08-12T00:50:50;4.78;;;4.38;;
49840;SDS011;35738;49.890;5.930;2023-08-12T00:53:18;4.78;;;4.38;;
49840;SDS011;35738;49.890;5.930;2023-08-12T00:55:45;5.28;;;4.82;;
49840;SDS011;35738;49.890;5.930;2023-08-12T00:58:12;6.60;;;4.88;;
49840;SDS011;35738;49.890;5.930;2023-08-12T01:00:38;6.28;;;4.88;;
49840;SDS011;35738;49.890;5.930;2023-08-12T01:03:05;5.60;;;4.90;;
49840;SDS011;35738;49.890;5.930;2023-08-12T01:05:32;4.93;;;4.40;;
49840;SDS011;35738;49.890;5.930;2023-08-12T01:07:59;5.53;;;5.03;;
49840;SDS011;35738;49.890;5.930;2023-08-12T01:10:28;6.28;;;4.80;;
49840;SDS011;35738;49.890;5.930;2023-08-12T01:13:01;4.63;;;4.20;;
49840;SDS011;35738;49.890;5.930;2023-08-12T01:15:44;4.57;;;3.80;;
49840;SDS011;35738;49.890;5.930;2023-08-12T01:18:13;4.22;;;3.80;;
49840;SDS011;35738;49.890;5.930;2023-08-12T01:20:40;4.32;;;3.92;;
49840;SDS011;35738;49.890;5.930;2023-08-12T01:23:24;4.30;;;3.63;;
49840;SDS011;35738;49.890;5.930;2023-08-12T01:25:51;4.50;;;3.00;;
49840;SDS011;35738;49.890;5.930;2023-08-12T01:28:18;5.25;;;3.17;;
49840;SDS011;35738;49.890;5.930;2023-08-12T01:30:55;3.05;;;2.80;;
49840;SDS011;35738;49.890;5.930;2023-08-12T01:33:31;3.15;;;2.85;;
49840;SDS011;35738;49.890;5.930;2023-08-12T01:36:15;3.05;;;2.78;;
49840;SDS011;35738;49.890;5.930;2023-08-12T01:38:43;5.05;;;3.10;;
49840;SDS011;35738;49.890;5.930;2023-08-12T01:41:12;3.00;;;2.80;;
49840;SDS011;35738;49.890;5.930;2023-08-12T01:43:40;2.75;;;2.55;;
49840;SDS011;35738;49.890;5.930;2023-08-12T01:46:08;3.55;;;3.00;;
49840;SDS011;35738;49.890;5.930;2023-08-12T01:48:35;3.28;;;2.90;;
49840;SDS011;35738;49.890;5.930;2023-08-12T01:51:02;3.70;;;3.30;;
49840;SDS011;35738;49.890;5.930;2023-08-12T01:53:29;4.07;;;3.05;;
49840;SDS011;35738;49.890;5.930;2023-08-12T01:55:55;4.05;;;3.50;;
49840;SDS011;35738;49.890;5.930;2023-08-12T01:58:22;4.18;;;3.28;;
49840;SDS011;35738;49.890;5.930;2023-08-12T02:00:48;5.47;;;3.60;;
49840;SDS011;35738;49.890;5.930;2023-08-12T02:03:15;4.30;;;3.50;;
49840;SDS011;35738;49.890;5.930;2023-08-12T02:05:41;4.43;;;3.95;;
49840;SDS011;35738;49.890;5.930;2023-08-12T02:08:08;4.57;;;4.10;;
49840;SDS011;35738;49.890;5.930;2023-08-12T02:10:35;4.15;;;3.80;;
49840;SDS011;35738;49.890;5.930;2023-08-12T02:13:02;4.22;;;3.80;;
49840;SDS011;35738;49.890;5.930;2023-08-12T02:15:29;6.60;;;4.32;;
49840;SDS011;35738;49.890;5.930;2023-08-12T02:17:55;5.28;;;4.47;;
49840;SDS011;35738;49.890;5.930;2023-08-12T02:20:22;7.28;;;4.93;;
49840;SDS011;35738;49.890;5.930;2023-08-12T02:22:49;5.03;;;4.55;;
49840;SDS011;35738;49.890;5.930;2023-08-12T02:25:15;6.18;;;4.72;;
49840;SDS011;35738;49.890;5.930;2023-08-12T02:27:42;7.20;;;6.50;;
49840;SDS011;35738;49.890;5.930;2023-08-12T02:30:08;14.63;;;11.55;;
49840;SDS011;35738;49.890;5.930;2023-08-12T02:32:35;52.72;;;13.43;;
49840;SDS011;35738;49.890;5.930;2023-08-12T02:35:02;46.78;;;11.07;;
49840;SDS011;35738;49.890;5.930;2023-08-12T02:37:29;30.85;;;12.93;;
49840;SDS011;35738;49.890;5.930;2023-08-12T02:39:56;22.85;;;10.93;;
49840;SDS011;35738;49.890;5.930;2023-08-12T02:42:22;36.75;;;10.68;;
49840;SDS011;35738;49.890;5.930;2023-08-12T02:44:49;51.03;;;12.02;;
49840;SDS011;35738;49.890;5.930;2023-08-12T02:47:15;27.10;;;11.18;;
49840;SDS011;35738;49.890;5.930;2023-08-12T02:49:42;22.85;;;11.65;;
49840;SDS011;35738;49.890;5.930;2023-08-12T02:52:10;25.95;;;11.70;;
49840;SDS011;35738;49.890;5.930;2023-08-12T02:54:36;16.08;;;9.88;;
49840;SDS011;35738;49.890;5.930;2023-08-12T02:57:03;20.55;;;11.50;;
49840;SDS011;35738;49.890;5.930;2023-08-12T02:59:29;17.77;;;10.32;;
49840;SDS011;35738;49.890;5.930;2023-08-12T03:01:56;16.13;;;11.00;;
49840;SDS011;35738;49.890;5.930;2023-08-12T03:04:22;10.35;;;8.85;;
49840;SDS011;35738;49.890;5.930;2023-08-12T03:06:49;17.20;;;10.23;;
49840;SDS011;35738;49.890;5.930;2023-08-12T03:09:15;14.30;;;9.70;;
49840;SDS011;35738;49.890;5.930;2023-08-12T03:11:44;12.05;;;8.60;;
49840;SDS011;35738;49.890;5.930;2023-08-12T03:14:11;8.50;;;7.47;;
49840;SDS011;35738;49.890;5.930;2023-08-12T03:16:37;8.80;;;8.00;;
49840;SDS011;35738;49.890;5.930;2023-08-12T03:19:04;7.30;;;6.70;;
49840;SDS011;35738;49.890;5.930;2023-08-12T03:21:30;7.53;;;6.72;;
49840;SDS011;35738;49.890;5.930;2023-08-12T03:23:57;8.88;;;7.30;;
49840;SDS011;35738;49.890;5.930;2023-08-12T03:26:23;8.43;;;7.32;;
49840;SDS011;35738;49.890;5.930;2023-08-12T03:28:50;7.75;;;6.53;;
49840;SDS011;35738;49.890;5.930;2023-08-12T03:31:16;8.68;;;7.40;;
49840;SDS011;35738;49.890;5.930;2023-08-12T03:33:43;11.13;;;7.35;;
49840;SDS011;35738;49.890;5.930;2023-08-12T03:36:09;9.60;;;7.45;;
49840;SDS011;35738;49.890;5.930;2023-08-12T03:38:36;10.48;;;8.32;;
49840;SDS011;35738;49.890;5.930;2023-08-12T03:41:03;8.38;;;7.65;;
49840;SDS011;35738;49.890;5.930;2023-08-12T03:43:29;9.07;;;7.82;;
49840;SDS011;35738;49.890;5.930;2023-08-12T03:45:56;11.52;;;8.25;;
49840;SDS011;35738;49.890;5.930;2023-08-12T03:48:23;11.05;;;9.00;;
49840;SDS011;35738;49.890;5.930;2023-08-12T03:50:49;11.90;;;9.35;;
49840;SDS011;35738;49.890;5.930;2023-08-12T03:53:16;10.10;;;8.95;;
49840;SDS011;35738;49.890;5.930;2023-08-12T03:55:43;9.27;;;8.30;;
49840;SDS011;35738;49.890;5.930;2023-08-12T03:58:10;8.05;;;7.25;;
49840;SDS011;35738;49.890;5.930;2023-08-12T04:00:40;12.05;;;9.27;;
49840;SDS011;35738;49.890;5.930;2023-08-12T04:03:08;8.43;;;6.95;;
49840;SDS011;35738;49.890;5.930;2023-08-12T04:05:35;8.40;;;7.28;;
49840;SDS011;35738;49.890;5.930;2023-08-12T04:08:02;8.55;;;6.97;;
49840;SDS011;35738;49.890;5.930;2023-08-12T04:10:29;7.28;;;6.57;;
49840;SDS011;35738;49.890;5.930;2023-08-12T04:12:56;8.45;;;6.43;;
49840;SDS011;35738;49.890;5.930;2023-08-12T04:15:23;7.03;;;6.32;;
49840;SDS011;35738;49.890;5.930;2023-08-12T04:17:49;10.52;;;6.72;;
49840;SDS011;35738;49.890;5.930;2023-08-12T04:20:16;10.93;;;7.28;;
49840;SDS011;35738;49.890;5.930;2023-08-12T04:22:42;7.82;;;6.03;;
49840;SDS011;35738;49.890;5.930;2023-08-12T04:25:09;8.13;;;5.72;;
49840;SDS011;35738;49.890;5.930;2023-08-12T04:27:35;6.07;;;4.78;;
49840;SDS011;35738;49.890;5.930;2023-08-12T04:30:02;5.68;;;4.40;;
49840;SDS011;35738;49.890;5.930;2023-08-12T04:32:29;4.30;;;3.90;;
49840;SDS011;35738;49.890;5.930;2023-08-12T04:34:55;4.85;;;4.15;;
49840;SDS011;35738;49.890;5.930;2023-08-12T04:37:22;5.40;;;4.20;;
49840;SDS011;35738;49.890;5.930;2023-08-12T04:39:50;5.15;;;4.30;;
49840;SDS011;35738;49.890;5.930;2023-08-12T04:42:16;5.45;;;4.57;;
49840;SDS011;35738;49.890;5.930;2023-08-12T04:44:43;5.95;;;4.43;;
49840;SDS011;35738;49.890;5.930;2023-08-12T04:47:09;8.20;;;5.28;;
49840;SDS011;35738;49.890;5.930;2023-08-12T04:49:37;5.00;;;4.50;;
49840;SDS011;35738;49.890;5.930;2023-08-12T04:52:03;5.72;;;4.68;;
49840;SDS011;35738;49.890;5.930;2023-08-12T04:54:30;7.28;;;4.78;;
49840;SDS011;35738;49.890;5.930;2023-08-12T04:56:56;6.90;;;4.32;;
49840;SDS011;35738;49.890;5.930;2023-08-12T04:59:23;8.05;;;5.03;;
49840;SDS011;35738;49.890;5.930;2023-08-12T05:01:49;7.43;;;4.90;;
49840;SDS011;35738;49.890;5.930;2023-08-12T05:04:29;8.00;;;4.80;;
49840;SDS011;35738;49.890;5.930;2023-08-12T05:06:56;6.72;;;5.43;;
49840;SDS011;35738;49.890;5.930;2023-08-12T05:09:22;6.53;;;4.75;;
49840;SDS011;35738;49.890;5.930;2023-08-12T05:11:49;5.82;;;4.55;;
49840;SDS011;35738;49.890;5.930;2023-08-12T05:14:15;9.73;;;5.53;;
49840;SDS011;35738;49.890;5.930;2023-08-12T05:16:42;6.68;;;5.05;;
49840;SDS011;35738;49.890;5.930;2023-08-12T05:19:09;9.43;;;5.97;;
49840;SDS011;35738;49.890;5.930;2023-08-12T05:21:35;6.93;;;5.20;;
49840;SDS011;35738;49.890;5.930;2023-08-12T05:24:02;8.52;;;5.40;;
49840;SDS011;35738;49.890;5.930;2023-08-12T05:26:28;8.73;;;5.47;;
49840;SDS011;35738;49.890;5.930;2023-08-12T05:28:55;6.72;;;5.40;;
49840;SDS011;35738;49.890;5.930;2023-08-12T05:31:21;5.15;;;4.65;;
49840;SDS011;35738;49.890;5.930;2023-08-12T05:33:48;6.93;;;4.60;;
49840;SDS011;35738;49.890;5.930;2023-08-12T05:36:15;7.35;;;4.90;;
49840;SDS011;35738;49.890;5.930;2023-08-12T05:38:41;6.82;;;4.93;;
49840;SDS011;35738;49.890;5.930;2023-08-12T05:41:08;10.70;;;5.80;;
49840;SDS011;35738;49.890;5.930;2023-08-12T05:43:34;7.47;;;5.00;;
49840;SDS011;35738;49.890;5.930;2023-08-12T05:46:01;5.85;;;5.30;;
49840;SDS011;35738;49.890;5.930;2023-08-12T05:48:28;6.47;;;4.90;;
49840;SDS011;35738;49.890;5.930;2023-08-12T05:50:54;5.47;;;4.80;;
49840;SDS011;35738;49.890;5.930;2023-08-12T05:53:21;7.90;;;5.38;;
49840;SDS011;35738;49.890;5.930;2023-08-12T05:55:48;6.97;;;6.00;;
49840;SDS011;35738;49.890;5.930;2023-08-12T05:58:15;7.40;;;5.30;;
49840;SDS011;35738;49.890;5.930;2023-08-12T06:00:41;11.50;;;6.47;;
49840;SDS011;35738;49.890;5.930;2023-08-12T06:03:11;8.35;;;7.25;;
49840;SDS011;35738;49.890;5.930;2023-08-12T06:05:39;10.45;;;6.53;;
49840;SDS011;35738;49.890;5.930;2023-08-12T06:08:06;12.25;;;7.05;;
49840;SDS011;35738;49.890;5.930;2023-08-12T06:10:33;7.53;;;5.70;;
49840;SDS011;35738;49.890;5.930;2023-08-12T06:13:04;7.88;;;6.03;;
49840;SDS011;35738;49.890;5.930;2023-08-12T06:15:30;10.70;;;6.45;;
49840;SDS011;35738;49.890;5.930;2023-08-12T06:17:57;7.63;;;6.82;;
49840;SDS011;35738;49.890;5.930;2023-08-12T06:20:24;9.90;;;7.25;;
49840;SDS011;35738;49.890;5.930;2023-08-12T06:22:51;11.07;;;8.85;;
49840;SDS011;35738;49.890;5.930;2023-08-12T06:25:18;10.15;;;8.45;;
49840;SDS011;35738;49.890;5.930;2023-08-12T06:27:45;18.05;;;10.30;;
49840;SDS011;35738;49.890;5.930;2023-08-12T06:30:13;10.88;;;9.30;;
49840;SDS011;35738;49.890;5.930;2023-08-12T06:32:40;12.88;;;9.60;;
49840;SDS011;35738;49.890;5.930;2023-08-12T06:35:07;13.30;;;9.25;;
49840;SDS011;35738;49.890;5.930;2023-08-12T06:37:34;12.68;;;9.43;;
49840;SDS011;35738;49.890;5.930;2023-08-12T06:40:00;10.07;;;8.45;;
49840;SDS011;35738;49.890;5.930;2023-08-12T06:42:27;10.68;;;8.55;;
49840;SDS011;35738;49.890;5.930;2023-08-12T06:44:58;11.75;;;8.63;;
49840;SDS011;35738;49.890;5.930;2023-08-12T06:47:25;10.77;;;7.43;;
49840;SDS011;35738;49.890;5.930;2023-08-12T06:49:54;12.20;;;8.40;;
49840;SDS011;35738;49.890;5.930;2023-08-12T06:52:21;10.88;;;8.27;;
49840;SDS011;35738;49.890;5.930;2023-08-12T06:54:47;13.20;;;8.85;;
49840;SDS011;35738;49.890;5.930;2023-08-12T06:57:14;12.88;;;8.55;;
49840;SDS011;35738;49.890;5.930;2023-08-12T06:59:40;13.13;;;8.65;;
49840;SDS011;35738;49.890;5.930;2023-08-12T07:02:07;9.75;;;8.15;;
49840;SDS011;35738;49.890;5.930;2023-08-12T07:04:34;12.43;;;8.85;;
49840;SDS011;35738;49.890;5.930;2023-08-12T07:07:00;9.73;;;8.45;;
49840;SDS011;35738;49.890;5.930;2023-08-12T07:09:27;9.82;;;7.75;;
49840;SDS011;35738;49.890;5.930;2023-08-12T07:11:53;10.98;;;8.38;;
49840;SDS011;35738;49.890;5.930;2023-08-12T07:14:20;11.30;;;8.02;;
49840;SDS011;35738;49.890;5.930;2023-08-12T07:16:47;8.82;;;7.57;;
49840;SDS011;35738;49.890;5.930;2023-08-12T07:19:14;8.52;;;7.63;;
49840;SDS011;35738;49.890;5.930;2023-08-12T07:21:42;8.43;;;6.80;;
49840;SDS011;35738;49.890;5.930;2023-08-12T07:24:09;7.68;;;6.88;;
49840;SDS011;35738;49.890;5.930;2023-08-12T07:26:35;8.32;;;6.75;;
49840;SDS011;35738;49.890;5.930;2023-08-12T07:29:02;10.18;;;7.18;;
49840;SDS011;35738;49.890;5.930;2023-08-12T07:31:29;7.80;;;6.63;;
49840;SDS011;35738;49.890;5.930;2023-08-12T07:33:57;8.25;;;6.57;;
49840;SDS011;35738;49.890;5.930;2023-08-12T07:36:24;9.13;;;6.07;;
49840;SDS011;35738;49.890;5.930;2023-08-12T07:38:51;6.80;;;5.97;;
49840;SDS011;35738;49.890;5.930;2023-08-12T07:41:18;7.07;;;6.38;;
49840;SDS011;35738;49.890;5.930;2023-08-12T07:43:44;7.15;;;5.97;;
49840;SDS011;35738;49.890;5.930;2023-08-12T07:46:11;7.85;;;6.30;;
49840;SDS011;35738;49.890;5.930;2023-08-12T07:48:38;6.82;;;5.28;;
49840;SDS011;35738;49.890;5.930;2023-08-12T07:51:05;6.93;;;5.68;;
49840;SDS011;35738;49.890;5.930;2023-08-12T07:53:32;7.93;;;5.35;;
49840;SDS011;35738;49.890;5.930;2023-08-12T07:55:58;7.28;;;5.57;;
49840;SDS011;35738;49.890;5.930;2023-08-12T07:58:25;6.25;;;5.65;;
49840;SDS011;35738;49.890;5.930;2023-08-12T08:00:52;6.75;;;5.15;;
49840;SDS011;35738;49.890;5.930;2023-08-12T08:03:20;5.32;;;4.93;;
49840;SDS011;35738;49.890;5.930;2023-08-12T08:05:47;5.03;;;4.53;;
49840;SDS011;35738;49.890;5.930;2023-08-12T08:08:14;5.97;;;5.10;;
49840;SDS011;35738;49.890;5.930;2023-08-12T08:10:41;6.45;;;5.85;;
49840;SDS011;35738;49.890;5.930;2023-08-12T08:13:08;8.18;;;5.38;;
49840;SDS011;35738;49.890;5.930;2023-08-12T08:15:35;6.88;;;5.63;;
49840;SDS011;35738;49.890;5.930;2023-08-12T08:18:02;5.45;;;4.50;;
49840;SDS011;35738;49.890;5.930;2023-08-12T08:20:31;6.18;;;4.70;;
49840;SDS011;35738;49.890;5.930;2023-08-12T08:22:58;4.93;;;4.53;;
49840;SDS011;35738;49.890;5.930;2023-08-12T08:25:25;5.45;;;4.38;;
49840;SDS011;35738;49.890;5.930;2023-08-12T08:27:52;5.13;;;4.40;;
49840;SDS011;35738;49.890;5.930;2023-08-12T08:30:19;6.20;;;4.95;;
49840;SDS011;35738;49.890;5.930;2023-08-12T08:32:46;5.50;;;5.00;;
49840;SDS011;35738;49.890;5.930;2023-08-12T08:35:13;5.32;;;4.93;;
49840;SDS011;35738;49.890;5.930;2023-08-12T08:37:41;5.05;;;4.65;;
49840;SDS011;35738;49.890;5.930;2023-08-12T08:40:08;5.63;;;5.00;;
49840;SDS011;35738;49.890;5.930;2023-08-12T08:42:35;5.80;;;5.28;;
49840;SDS011;35738;49.890;5.930;2023-08-12T08:45:03;5.68;;;5.18;;
49840;SDS011;35738;49.890;5.930;2023-08-12T08:47:36;6.32;;;5.68;;
49840;SDS011;35738;49.890;5.930;2023-08-12T08:50:03;6.10;;;5.57;;
49840;SDS011;35738;49.890;5.930;2023-08-12T08:52:30;6.85;;;6.13;;
49840;SDS011;35738;49.890;5.930;2023-08-12T08:54:59;7.45;;;6.75;;
49840;SDS011;35738;49.890;5.930;2023-08-12T08:57:32;7.32;;;6.63;;
49840;SDS011;35738;49.890;5.930;2023-08-12T09:00:13;6.63;;;5.85;;
49840;SDS011;35738;49.890;5.930;2023-08-12T09:02:43;7.38;;;6.60;;
49840;SDS011;35738;49.890;5.930;2023-08-12T09:05:12;5.05;;;4.55;;
49840;SDS011;35738;49.890;5.930;2023-08-12T09:07:41;5.70;;;5.10;;
49840;SDS011;35738;49.890;5.930;2023-08-12T09:10:09;4.75;;;4.35;;
49840;SDS011;35738;49.890;5.930;2023-08-12T09:12:40;5.70;;;5.20;;
49840;SDS011;35738;49.890;5.930;2023-08-12T09:15:07;6.78;;;6.07;;
49840;SDS011;35738;49.890;5.930;2023-08-12T09:17:35;6.00;;;5.60;;
49840;SDS011;35738;49.890;5.930;2023-08-12T09:20:02;6.45;;;5.85;;
49840;SDS011;35738;49.890;5.930;2023-08-12T09:22:34;6.80;;;5.70;;
49840;SDS011;35738;49.890;5.930;2023-08-12T09:25:01;5.05;;;4.55;;
49840;SDS011;35738;49.890;5.930;2023-08-12T09:27:29;5.63;;;4.18;;
49840;SDS011;35738;49.890;5.930;2023-08-12T09:29:57;4.20;;;3.80;;
49840;SDS011;35738;49.890;5.930;2023-08-12T09:32:24;3.78;;;3.08;;
49840;SDS011;35738;49.890;5.930;2023-08-12T09:34:52;3.33;;;3.08;;
49840;SDS011;35738;49.890;5.930;2023-08-12T09:37:20;4.70;;;3.03;;
49840;SDS011;35738;49.890;5.930;2023-08-12T09:39:48;3.53;;;3.10;;
49840;SDS011;35738;49.890;5.930;2023-08-12T09:42:16;3.03;;;2.83;;
49840;SDS011;35738;49.890;5.930;2023-08-12T09:44:44;2.78;;;2.58;;
49840;SDS011;35738;49.890;5.930;2023-08-12T09:47:11;6.28;;;2.50;;
49840;SDS011;35738;49.890;5.930;2023-08-12T09:49:38;2.95;;;2.42;;
49840;SDS011;35738;49.890;5.930;2023-08-12T09:52:06;4.57;;;2.72;;
49840;SDS011;35738;49.890;5.930;2023-08-12T09:54:34;3.17;;;2.50;;
49840;SDS011;35738;49.890;5.930;2023-08-12T09:57:02;2.83;;;2.63;;
49840;SDS011;35738;49.890;5.930;2023-08-12T09:59:30;3.30;;;2.50;;
49840;SDS011;35738;49.890;5.930;2023-08-12T10:01:58;2.65;;;2.33;;
49840;SDS011;35738;49.890;5.930;2023-08-12T10:04:29;2.83;;;2.42;;
49840;SDS011;35738;49.890;5.930;2023-08-12T10:07:01;2.95;;;2.60;;
49840;SDS011;35738;49.890;5.930;2023-08-12T10:09:28;3.00;;;2.80;;
49840;SDS011;35738;49.890;5.930;2023-08-12T10:11:55;2.58;;;2.35;;
49840;SDS011;35738;49.890;5.930;2023-08-12T10:14:22;4.50;;;2.78;;
49840;SDS011;35738;49.890;5.930;2023-08-12T10:16:50;2.88;;;2.65;;
49840;SDS011;35738;49.890;5.930;2023-08-12T10:19:17;3.75;;;2.40;;
49840;SDS011;35738;49.890;5.930;2023-08-12T10:21:50;4.63;;;2.60;;
49840;SDS011;35738;49.890;5.930;2023-08-12T10:24:21;2.95;;;2.55;;
49840;SDS011;35738;49.890;5.930;2023-08-12T10:26:47;2.80;;;2.60;;
49840;SDS011;35738;49.890;5.930;2023-08-12T10:29:15;2.75;;;2.30;;
49840;SDS011;35738;49.890;5.930;2023-08-12T10:31:42;3.28;;;2.45;;
49840;SDS011;35738;49.890;5.930;2023-08-12T10:34:23;2.70;;;2.50;;
49840;SDS011;35738;49.890;5.930;2023-08-12T10:36:54;2.88;;;2.50;;
49840;SDS011;35738;49.890;5.930;2023-08-12T10:39:30;3.25;;;2.72;;
49840;SDS011;35738;49.890;5.930;2023-08-12T10:41:58;4.40;;;2.70;;
49840;SDS011;35738;49.890;5.930;2023-08-12T10:44:49;2.85;;;2.28;;
49840;SDS011;35738;49.890;5.930;2023-08-12T10:47:17;2.60;;;2.40;;
49840;SDS011;35738;49.890;5.930;2023-08-12T10:49:47;3.72;;;2.50;;
49840;SDS011;35738;49.890;5.930;2023-08-12T10:52:31;3.17;;;2.53;;
49840;SDS011;35738;49.890;5.930;2023-08-12T10:57:44;3.45;;;2.50;;
49840;SDS011;35738;49.890;5.930;2023-08-12T11:00:14;4.60;;;2.70;;
49840;SDS011;35738;49.890;5.930;2023-08-12T11:02:48;3.88;;;2.83;;
49840;SDS011;35738;49.890;5.930;2023-08-12T11:05:17;3.15;;;2.60;;
49840;SDS011;35738;49.890;5.930;2023-08-12T11:07:49;2.95;;;2.10;;
49840;SDS011;35738;49.890;5.930;2023-08-12T11:10:33;3.58;;;2.00;;
49840;SDS011;35738;49.890;5.930;2023-08-12T11:13:02;3.85;;;2.50;;
49840;SDS011;35738;49.890;5.930;2023-08-12T11:17:56;2.60;;;2.40;;
49840;SDS011;35738;49.890;5.930;2023-08-12T11:20:22;4.68;;;2.17;;
49840;SDS011;35738;49.890;5.930;2023-08-12T11:22:49;2.58;;;2.30;;
49840;SDS011;35738;49.890;5.930;2023-08-12T11:25:16;3.95;;;2.30;;
49840;SDS011;35738;49.890;5.930;2023-08-12T11:27:46;1.98;;;1.88;;
49840;SDS011;35738;49.890;5.930;2023-08-12T11:30:14;3.13;;;2.30;;
49840;SDS011;35738;49.890;5.930;2023-08-12T11:32:43;2.42;;;2.10;;
49840;SDS011;35738;49.890;5.930;2023-08-12T11:35:12;2.30;;;2.10;;
49840;SDS011;35738;49.890;5.930;2023-08-12T11:37:41;3.17;;;2.17;;
49840;SDS011;35738;49.890;5.930;2023-08-12T11:40:10;3.47;;;2.20;;
49840;SDS011;35738;49.890;5.930;2023-08-12T11:42:38;3.50;;;2.28;;
49840;SDS011;35738;49.890;5.930;2023-08-12T11:45:07;3.00;;;2.03;;
49840;SDS011;35738;49.890;5.930;2023-08-12T11:47:34;2.55;;;2.13;;
49840;SDS011;35738;49.890;5.930;2023-08-12T11:50:02;2.83;;;2.20;;
49840;SDS011;35738;49.890;5.930;2023-08-12T11:52:30;2.50;;;2.30;;
49840;SDS011;35738;49.890;5.930;2023-08-12T11:54:57;3.60;;;2.40;;
49840;SDS011;35738;49.890;5.930;2023-08-12T11:57:24;2.63;;;2.30;;
49840;SDS011;35738;49.890;5.930;2023-08-12T12:00:03;3.17;;;2.30;;
49840;SDS011;35738;49.890;5.930;2023-08-12T12:05:11;2.70;;;2.50;;
49840;SDS011;35738;49.890;5.930;2023-08-12T12:07:38;3.97;;;2.45;;
49840;SDS011;35738;49.890;5.930;2023-08-12T12:10:05;4.00;;;2.70;;
49840;SDS011;35738;49.890;5.930;2023-08-12T12:12:33;2.70;;;2.50;;
49840;SDS011;35738;49.890;5.930;2023-08-12T12:15:03;3.75;;;2.30;;
49840;SDS011;35738;49.890;5.930;2023-08-12T12:17:31;4.63;;;2.70;;
49840;SDS011;35738;49.890;5.930;2023-08-12T12:19:58;2.97;;;2.67;;
49840;SDS011;35738;49.890;5.930;2023-08-12T12:22:32;3.45;;;2.50;;
49840;SDS011;35738;49.890;5.930;2023-08-12T12:25:00;5.32;;;2.60;;
49840;SDS011;35738;49.890;5.930;2023-08-12T12:27:31;2.78;;;2.50;;
49840;SDS011;35738;49.890;5.930;2023-08-12T12:29:57;3.63;;;2.67;;
49840;SDS011;35738;49.890;5.930;2023-08-12T12:32:24;3.08;;;2.78;;
49840;SDS011;35738;49.890;5.930;2023-08-12T12:34:50;2.70;;;2.50;;
49840;SDS011;35738;49.890;5.930;2023-08-12T12:37:18;4.40;;;2.70;;
49840;SDS011;35738;49.890;5.930;2023-08-12T12:39:45;2.58;;;2.38;;
49840;SDS011;35738;49.890;5.930;2023-08-12T12:42:12;3.08;;;2.47;;
49840;SDS011;35738;49.890;5.930;2023-08-12T12:44:39;3.50;;;2.25;;
49840;SDS011;35738;49.890;5.930;2023-08-12T12:47:05;4.38;;;2.20;;
49840;SDS011;35738;49.890;5.930;2023-08-12T12:49:33;2.85;;;2.38;;
49840;SDS011;35738;49.890;5.930;2023-08-12T12:51:59;3.38;;;2.20;;
49840;SDS011;35738;49.890;5.930;2023-08-12T12:54:26;2.85;;;2.20;;
49840;SDS011;35738;49.890;5.930;2023-08-12T12:56:52;2.40;;;2.08;;
49840;SDS011;35738;49.890;5.930;2023-08-12T12:59:19;3.95;;;2.25;;
49840;SDS011;35738;49.890;5.930;2023-08-12T13:01:45;2.55;;;2.00;;
49840;SDS011;35738;49.890;5.930;2023-08-12T13:04:12;1.85;;;1.75;;
49840;SDS011;35738;49.890;5.930;2023-08-12T13:06:38;2.65;;;2.15;;
49840;SDS011;35738;49.890;5.930;2023-08-12T13:09:05;3.75;;;2.28;;
49840;SDS011;35738;49.890;5.930;2023-08-12T13:11:32;3.33;;;2.25;;
49840;SDS011;35738;49.890;5.930;2023-08-12T13:14:02;2.30;;;2.10;;
49840;SDS011;35738;49.890;5.930;2023-08-12T13:16:30;2.45;;;2.20;;
49840;SDS011;35738;49.890;5.930;2023-08-12T13:18:56;2.60;;;2.22;;
49840;SDS011;35738;49.890;5.930;2023-08-12T13:21:26;2.00;;;1.90;;
49840;SDS011;35738;49.890;5.930;2023-08-12T13:23:53;1.83;;;1.73;;
49840;SDS011;35738;49.890;5.930;2023-08-12T13:26:21;2.28;;;1.90;;
49840;SDS011;35738;49.890;5.930;2023-08-12T13:28:48;2.20;;;2.00;;
49840;SDS011;35738;49.890;5.930;2023-08-12T13:31:15;1.92;;;1.75;;
49840;SDS011;35738;49.890;5.930;2023-08-12T13:33:41;1.98;;;1.88;;
49840;SDS011;35738;49.890;5.930;2023-08-12T13:36:08;1.98;;;1.88;;
49840;SDS011;35738;49.890;5.930;2023-08-12T13:38:35;2.50;;;2.20;;
49840;SDS011;35738;49.890;5.930;2023-08-12T13:41:01;4.20;;;2.40;;
49840;SDS011;35738;49.890;5.930;2023-08-12T13:43:28;1.85;;;1.75;;
49840;SDS011;35738;49.890;5.930;2023-08-12T13:45:54;1.90;;;1.73;;
49840;SDS011;35738;49.890;5.930;2023-08-12T13:48:21;1.98;;;1.77;;
49840;SDS011;35738;49.890;5.930;2023-08-12T13:50:47;2.30;;;2.15;;
49840;SDS011;35738;49.890;5.930;2023-08-12T13:53:15;1.85;;;1.63;;
49840;SDS011;35738;49.890;5.930;2023-08-12T13:55:42;3.38;;;1.70;;
49840;SDS011;35738;49.890;5.930;2023-08-12T13:58:08;2.00;;;1.80;;
49840;SDS011;35738;49.890;5.930;2023-08-12T14:00:35;2.05;;;1.70;;
49840;SDS011;35738;49.890;5.930;2023-08-12T14:03:01;2.22;;;2.03;;
49840;SDS011;35738;49.890;5.930;2023-08-12T14:05:28;2.17;;;1.70;;
49840;SDS011;35738;49.890;5.930;2023-08-12T14:07:55;2.30;;;1.70;;
49840;SDS011;35738;49.890;5.930;2023-08-12T14:10:23;2.35;;;1.67;;
49840;SDS011;35738;49.890;5.930;2023-08-12T14:12:49;1.90;;;1.80;;
49840;SDS011;35738;49.890;5.930;2023-08-12T14:15:18;1.80;;;1.70;;
49840;SDS011;35738;49.890;5.930;2023-08-12T14:17:45;2.28;;;1.98;;
49840;SDS011;35738;49.890;5.930;2023-08-12T14:20:12;1.75;;;1.65;;
49840;SDS011;35738;49.890;5.930;2023-08-12T14:22:41;1.65;;;1.55;;
49840;SDS011;35738;49.890;5.930;2023-08-12T14:25:10;1.80;;;1.70;;
49840;SDS011;35738;49.890;5.930;2023-08-12T14:27:37;1.98;;;1.80;;
49840;SDS011;35738;49.890;5.930;2023-08-12T14:30:04;1.70;;;1.60;;
49840;SDS011;35738;49.890;5.930;2023-08-12T14:32:31;1.95;;;1.60;;
49840;SDS011;35738;49.890;5.930;2023-08-12T14:34:58;1.80;;;1.70;;
49840;SDS011;35738;49.890;5.930;2023-08-12T14:37:24;2.53;;;1.67;;
49840;SDS011;35738;49.890;5.930;2023-08-12T14:39:51;3.03;;;1.73;;
49840;SDS011;35738;49.890;5.930;2023-08-12T14:42:17;1.58;;;1.40;;
49840;SDS011;35738;49.890;5.930;2023-08-12T14:44:44;1.40;;;1.30;;
49840;SDS011;35738;49.890;5.930;2023-08-12T14:47:11;1.65;;;1.45;;
49840;SDS011;35738;49.890;5.930;2023-08-12T14:49:38;1.38;;;1.27;;
49840;SDS011;35738;49.890;5.930;2023-08-12T14:52:05;1.25;;;1.25;;
49840;SDS011;35738;49.890;5.930;2023-08-12T14:54:34;1.42;;;1.33;;
49840;SDS011;35738;49.890;5.930;2023-08-12T14:57:01;1.63;;;1.40;;